sensor_id;sensor_type;location;lat;lon;timestamp;P1;durP1;ratioP1;P2;durP2;ratioP2
53939;SDS011;39850;43.324;21.916;2023-02-11T00:12:20;166.0;;;93.0;;
53939;SDS011;39850;43.324;21.916;2023-02-11T00:16:56;166.0;;;93.0;;
53939;SDS011;39850;43.324;21.916;2023-02-11T00:21:35;156.0;;;91.0;;
53939;SDS011;39850;43.324;21.916;2023-02-11T00:26:19;156.0;;;91.0;;
53939;SDS011;39850;43.324;21.916;2023-02-11T00:30:58;145.0;;;89.0;;
53939;SDS011;39850;43.324;21.916;2023-02-11T00:35:37;145.0;;;89.0;;
53939;SDS011;39850;43.324;21.916;2023-02-11T00:40:15;136.0;;;86.0;;
53939;SDS011;39850;43.324;21.916;2023-02-11T00:44:52;136.0;;;86.0;;
53939;SDS011;39850;43.324;21.916;2023-02-11T00:49:28;126.0;;;83.0;;
53939;SDS011;39850;43.324;21.916;2023-02-11T00:54:06;126.0;;;83.0;;
53939;SDS011;39850;43.324;21.916;2023-02-11T00:58:43;126.0;;;83.0;;
53939;SDS011;39850;43.324;21.916;2023-02-11T01:31:03;96.0;;;67.0;;
53939;SDS011;39850;43.324;21.916;2023-02-11T01:35:45;96.0;;;67.0;;
53939;SDS011;39850;43.324;21.916;2023-02-11T01:40:23;92.0;;;66.0;;
53939;SDS011;39850;43.324;21.916;2023-02-11T01:46:31;92.0;;;66.0;;
53939;SDS011;39850;43.324;21.916;2023-02-11T01:51:32;92.0;;;66.0;;
53939;SDS011;39850;43.324;21.916;2023-02-11T01:56:19;92.0;;;66.0;;
53939;SDS011;39850;43.324;21.916;2023-02-11T02:01:03;89.0;;;64.0;;
53939;SDS011;39850;43.324;21.916;2023-02-11T02:06:11;89.0;;;64.0;;
53939;SDS011;39850;43.324;21.916;2023-02-11T02:54:28;113.0;;;79.0;;
53939;SDS011;39850;43.324;21.916;2023-02-11T03:00:11;105.0;;;74.0;;
53939;SDS011;39850;43.324;21.916;2023-02-11T03:05:21;105.0;;;74.0;;
53939;SDS011;39850;43.324;21.916;2023-02-11T03:10:20;105.0;;;74.0;;
53939;SDS011;39850;43.324;21.916;2023-02-11T03:15:11;105.0;;;74.0;;
53939;SDS011;39850;43.324;21.916;2023-02-11T03:19:51;97.0;;;69.0;;
53939;SDS011;39850;43.324;21.916;2023-02-11T03:24:40;97.0;;;69.0;;
53939;SDS011;39850;43.324;21.916;2023-02-11T04:12:26;81.0;;;58.0;;
53939;SDS011;39850;43.324;21.916;2023-02-11T04:17:05;81.0;;;58.0;;
53939;SDS011;39850;43.324;21.916;2023-02-11T04:21:42;84.0;;;60.0;;
53939;SDS011;39850;43.324;21.916;2023-02-11T04:26:19;84.0;;;60.0;;
53939;SDS011;39850;43.324;21.916;2023-02-11T04:30:57;84.0;;;60.0;;
53939;SDS011;39850;43.324;21.916;2023-02-11T04:35:34;84.0;;;60.0;;
53939;SDS011;39850;43.324;21.916;2023-02-11T04:40:12;87.0;;;61.0;;
53939;SDS011;39850;43.324;21.916;2023-02-11T04:44:48;87.0;;;61.0;;
53939;SDS011;39850;43.324;21.916;2023-02-11T04:49:25;87.0;;;61.0;;
53939;SDS011;39850;43.324;21.916;2023-02-11T05:30:56;93.0;;;65.0;;
53939;SDS011;39850;43.324;21.916;2023-02-11T05:35:33;93.0;;;65.0;;
53939;SDS011;39850;43.324;21.916;2023-02-11T05:40:11;88.0;;;63.0;;
53939;SDS011;39850;43.324;21.916;2023-02-11T05:44:48;88.0;;;63.0;;
53939;SDS011;39850;43.324;21.916;2023-02-11T05:49:25;88.0;;;63.0;;
53939;SDS011;39850;43.324;21.916;2023-02-11T05:54:02;88.0;;;63.0;;
53939;SDS011;39850;43.324;21.916;2023-02-11T05:58:39;88.0;;;63.0;;
53939;SDS011;39850;43.324;21.916;2023-02-11T06:03:15;83.0;;;61.0;;
53939;SDS011;39850;43.324;21.916;2023-02-11T06:07:52;83.0;;;61.0;;
53939;SDS011;39850;43.324;21.916;2023-02-11T06:54:12;174.0;;;120.0;;
53939;SDS011;39850;43.324;21.916;2023-02-11T06:58:56;174.0;;;120.0;;
53939;SDS011;39850;43.324;21.916;2023-02-11T07:03:37;184.0;;;125.0;;
53939;SDS011;39850;43.324;21.916;2023-02-11T07:08:15;184.0;;;125.0;;
53939;SDS011;39850;43.324;21.916;2023-02-11T07:12:52;184.0;;;125.0;;
53939;SDS011;39850;43.324;21.916;2023-02-11T07:17:29;184.0;;;125.0;;
53939;SDS011;39850;43.324;21.916;2023-02-11T07:22:06;195.0;;;130.0;;
53939;SDS011;39850;43.324;21.916;2023-02-11T07:26:43;195.0;;;130.0;;
53939;SDS011;39850;43.324;21.916;2023-02-11T08:13:07;108.0;;;79.0;;
53939;SDS011;39850;43.324;21.916;2023-02-11T08:17:43;108.0;;;79.0;;
53939;SDS011;39850;43.324;21.916;2023-02-11T08:22:20;106.0;;;78.0;;
53939;SDS011;39850;43.324;21.916;2023-02-11T08:26:56;106.0;;;78.0;;
53939;SDS011;39850;43.324;21.916;2023-02-11T08:31:43;106.0;;;78.0;;
53939;SDS011;39850;43.324;21.916;2023-02-11T08:36:32;106.0;;;78.0;;
53939;SDS011;39850;43.324;21.916;2023-02-11T08:41:13;104.0;;;76.0;;
53939;SDS011;39850;43.324;21.916;2023-02-11T08:45:49;104.0;;;76.0;;
53939;SDS011;39850;43.324;21.916;2023-02-11T08:50:26;104.0;;;76.0;;
53939;SDS011;39850;43.324;21.916;2023-02-11T09:32:04;120.0;;;96.0;;
53939;SDS011;39850;43.324;21.916;2023-02-11T09:36:42;120.0;;;96.0;;
53939;SDS011;39850;43.324;21.916;2023-02-11T09:42:27;118.0;;;94.0;;
53939;SDS011;39850;43.324;21.916;2023-02-11T09:47:38;118.0;;;94.0;;
53939;SDS011;39850;43.324;21.916;2023-02-11T09:52:51;116.0;;;93.0;;
53939;SDS011;39850;43.324;21.916;2023-02-11T09:57:36;116.0;;;93.0;;
53939;SDS011;39850;43.324;21.916;2023-02-11T10:02:54;116.0;;;92.0;;
53939;SDS011;39850;43.324;21.916;2023-02-11T10:08:11;116.0;;;92.0;;
53939;SDS011;39850;43.324;21.916;2023-02-11T10:13:55;116.0;;;93.0;;
53939;SDS011;39850;43.324;21.916;2023-02-11T10:19:42;116.0;;;93.0;;
53939;SDS011;39850;43.324;21.916;2023-02-11T10:53:22;50.0;;;42.0;;
53939;SDS011;39850;43.324;21.916;2023-02-11T10:58:05;50.0;;;42.0;;
53939;SDS011;39850;43.324;21.916;2023-02-11T11:02:53;44.0;;;38.0;;
53939;SDS011;39850;43.324;21.916;2023-02-11T11:07:35;44.0;;;38.0;;
53939;SDS011;39850;43.324;21.916;2023-02-11T11:12:47;45.0;;;37.0;;
53939;SDS011;39850;43.324;21.916;2023-02-11T11:17:25;45.0;;;37.0;;
53939;SDS011;39850;43.324;21.916;2023-02-11T11:22:04;42.0;;;36.0;;
53939;SDS011;39850;43.324;21.916;2023-02-11T11:26:51;42.0;;;36.0;;
53939;SDS011;39850;43.324;21.916;2023-02-11T11:31:51;45.0;;;37.0;;
53939;SDS011;39850;43.324;21.916;2023-02-11T11:36:39;45.0;;;37.0;;
53939;SDS011;39850;43.324;21.916;2023-02-11T12:12:52;42.0;;;38.0;;
53939;SDS011;39850;43.324;21.916;2023-02-11T12:18:55;42.0;;;38.0;;
53939;SDS011;39850;43.324;21.916;2023-02-11T12:24:55;43.0;;;38.0;;
53939;SDS011;39850;43.324;21.916;2023-02-11T12:30:59;43.0;;;38.0;;
53939;SDS011;39850;43.324;21.916;2023-02-11T12:36:24;42.0;;;37.0;;
53939;SDS011;39850;43.324;21.916;2023-02-11T12:42:16;42.0;;;36.0;;
53939;SDS011;39850;43.324;21.916;2023-02-11T12:47:44;42.0;;;36.0;;
53939;SDS011;39850;43.324;21.916;2023-02-11T12:53:36;40.0;;;36.0;;
53939;SDS011;39850;43.324;21.916;2023-02-11T12:58:37;40.0;;;36.0;;
53939;SDS011;39850;43.324;21.916;2023-02-11T13:33:42;38.0;;;34.0;;
53939;SDS011;39850;43.324;21.916;2023-02-11T13:38:30;38.0;;;34.0;;
53939;SDS011;39850;43.324;21.916;2023-02-11T13:43:28;38.0;;;34.0;;
53939;SDS011;39850;43.324;21.916;2023-02-11T13:48:27;38.0;;;34.0;;
53939;SDS011;39850;43.324;21.916;2023-02-11T13:53:08;38.0;;;34.0;;
53939;SDS011;39850;43.324;21.916;2023-02-11T13:58:15;38.0;;;34.0;;
53939;SDS011;39850;43.324;21.916;2023-02-11T14:03:39;38.0;;;34.0;;
53939;SDS011;39850;43.324;21.916;2023-02-11T14:09:38;38.0;;;34.0;;
53939;SDS011;39850;43.324;21.916;2023-02-11T14:14:27;37.0;;;34.0;;
53939;SDS011;39850;43.324;21.916;2023-02-11T14:19:08;37.0;;;34.0;;
53939;SDS011;39850;43.324;21.916;2023-02-11T14:54:28;40.0;;;35.0;;
53939;SDS011;39850;43.324;21.916;2023-02-11T14:59:22;40.0;;;35.0;;
53939;SDS011;39850;43.324;21.916;2023-02-11T15:04:13;40.0;;;35.0;;
53939;SDS011;39850;43.324;21.916;2023-02-11T15:09:20;40.0;;;35.0;;
53939;SDS011;39850;43.324;21.916;2023-02-11T15:14:21;40.0;;;35.0;;
53939;SDS011;39850;43.324;21.916;2023-02-11T15:19:20;40.0;;;35.0;;
53939;SDS011;39850;43.324;21.916;2023-02-11T15:24:26;38.0;;;34.0;;
53939;SDS011;39850;43.324;21.916;2023-02-11T15:29:16;38.0;;;34.0;;
53939;SDS011;39850;43.324;21.916;2023-02-11T15:33:54;36.0;;;33.0;;
53939;SDS011;39850;43.324;21.916;2023-02-11T15:38:32;36.0;;;33.0;;
53939;SDS011;39850;43.324;21.916;2023-02-11T16:16:27;56.0;;;46.0;;
53939;SDS011;39850;43.324;21.916;2023-02-11T16:21:19;60.0;;;48.0;;
53939;SDS011;39850;43.324;21.916;2023-02-11T16:26:22;60.0;;;48.0;;
53939;SDS011;39850;43.324;21.916;2023-02-11T16:31:05;60.0;;;48.0;;
53939;SDS011;39850;43.324;21.916;2023-02-11T16:35:42;63.0;;;50.0;;
53939;SDS011;39850;43.324;21.916;2023-02-11T16:40:19;63.0;;;50.0;;
53939;SDS011;39850;43.324;21.916;2023-02-11T16:44:55;70.0;;;57.0;;
53939;SDS011;39850;43.324;21.916;2023-02-11T16:49:41;70.0;;;57.0;;
53939;SDS011;39850;43.324;21.916;2023-02-11T16:54:20;223.0;;;119.0;;
53939;SDS011;39850;43.324;21.916;2023-02-11T16:58:56;223.0;;;119.0;;
53939;SDS011;39850;43.324;21.916;2023-02-11T17:03:37;376.0;;;181.0;;
53939;SDS011;39850;43.324;21.916;2023-02-11T17:08:16;376.0;;;181.0;;
53939;SDS011;39850;43.324;21.916;2023-02-11T17:45:41;267.0;;;185.0;;
53939;SDS011;39850;43.324;21.916;2023-02-11T17:50:19;267.0;;;185.0;;
53939;SDS011;39850;43.324;21.916;2023-02-11T17:54:56;265.0;;;184.0;;
53939;SDS011;39850;43.324;21.916;2023-02-11T17:59:32;265.0;;;184.0;;
53939;SDS011;39850;43.324;21.916;2023-02-11T18:04:18;267.0;;;185.0;;
53939;SDS011;39850;43.324;21.916;2023-02-11T18:08:56;267.0;;;185.0;;
53939;SDS011;39850;43.324;21.916;2023-02-11T18:13:33;266.0;;;184.0;;
53939;SDS011;39850;43.324;21.916;2023-02-11T18:18:10;266.0;;;184.0;;
53939;SDS011;39850;43.324;21.916;2023-02-11T18:22:47;270.0;;;187.0;;
53939;SDS011;39850;43.324;21.916;2023-02-11T18:27:23;270.0;;;187.0;;
53939;SDS011;39850;43.324;21.916;2023-02-11T19:04:21;159.0;;;118.0;;
53939;SDS011;39850;43.324;21.916;2023-02-11T19:09:15;159.0;;;118.0;;
53939;SDS011;39850;43.324;21.916;2023-02-11T19:13:53;138.0;;;104.0;;
53939;SDS011;39850;43.324;21.916;2023-02-11T19:18:30;138.0;;;104.0;;
53939;SDS011;39850;43.324;21.916;2023-02-11T19:23:08;118.0;;;90.0;;
53939;SDS011;39850;43.324;21.916;2023-02-11T19:27:45;118.0;;;90.0;;
53939;SDS011;39850;43.324;21.916;2023-02-11T19:32:21;110.0;;;84.0;;
53939;SDS011;39850;43.324;21.916;2023-02-11T19:36:58;110.0;;;84.0;;
53939;SDS011;39850;43.324;21.916;2023-02-11T19:41:35;110.0;;;84.0;;
53939;SDS011;39850;43.324;21.916;2023-02-11T19:46:12;102.0;;;78.0;;
53939;SDS011;39850;43.324;21.916;2023-02-11T19:50:49;102.0;;;78.0;;
53939;SDS011;39850;43.324;21.916;2023-02-11T20:23:13;198.0;;;142.0;;
53939;SDS011;39850;43.324;21.916;2023-02-11T20:27:50;198.0;;;142.0;;
53939;SDS011;39850;43.324;21.916;2023-02-11T20:32:27;208.0;;;146.0;;
53939;SDS011;39850;43.324;21.916;2023-02-11T20:37:03;208.0;;;146.0;;
53939;SDS011;39850;43.324;21.916;2023-02-11T20:41:40;208.0;;;146.0;;
53939;SDS011;39850;43.324;21.916;2023-02-11T20:46:27;198.0;;;142.0;;
53939;SDS011;39850;43.324;21.916;2023-02-11T20:51:14;198.0;;;142.0;;
53939;SDS011;39850;43.324;21.916;2023-02-11T20:55:52;188.0;;;132.0;;
53939;SDS011;39850;43.324;21.916;2023-02-11T21:00:28;188.0;;;132.0;;
53939;SDS011;39850;43.324;21.916;2023-02-11T21:05:06;159.0;;;116.0;;
53939;SDS011;39850;43.324;21.916;2023-02-11T21:09:43;159.0;;;116.0;;
53939;SDS011;39850;43.324;21.916;2023-02-11T21:46:47;127.0;;;97.0;;
53939;SDS011;39850;43.324;21.916;2023-02-11T21:51:26;127.0;;;97.0;;
53939;SDS011;39850;43.324;21.916;2023-02-11T21:56:14;116.0;;;90.0;;
53939;SDS011;39850;43.324;21.916;2023-02-11T22:00:52;116.0;;;90.0;;
53939;SDS011;39850;43.324;21.916;2023-02-11T22:05:29;117.0;;;91.0;;
53939;SDS011;39850;43.324;21.916;2023-02-11T22:10:10;117.0;;;91.0;;
53939;SDS011;39850;43.324;21.916;2023-02-11T22:14:46;112.0;;;87.0;;
53939;SDS011;39850;43.324;21.916;2023-02-11T22:19:23;112.0;;;87.0;;
53939;SDS011;39850;43.324;21.916;2023-02-11T22:23:59;117.0;;;91.0;;
53939;SDS011;39850;43.324;21.916;2023-02-11T22:28:38;117.0;;;91.0;;
53939;SDS011;39850;43.324;21.916;2023-02-11T23:05:43;200.0;;;146.0;;
53939;SDS011;39850;43.324;21.916;2023-02-11T23:10:20;200.0;;;146.0;;
53939;SDS011;39850;43.324;21.916;2023-02-11T23:14:56;198.0;;;144.0;;
53939;SDS011;39850;43.324;21.916;2023-02-11T23:19:33;198.0;;;144.0;;
53939;SDS011;39850;43.324;21.916;2023-02-11T23:24:14;197.0;;;142.0;;
53939;SDS011;39850;43.324;21.916;2023-02-11T23:28:52;197.0;;;142.0;;
53939;SDS011;39850;43.324;21.916;2023-02-11T23:33:28;192.0;;;138.0;;
53939;SDS011;39850;43.324;21.916;2023-02-11T23:38:05;192.0;;;138.0;;
53939;SDS011;39850;43.324;21.916;2023-02-11T23:42:42;186.0;;;135.0;;
53939;SDS011;39850;43.324;21.916;2023-02-11T23:47:18;186.0;;;135.0;;
53939;SDS011;39850;43.324;21.916;2023-02-11T23:51:56;186.0;;;135.0;;
